Terminal Aerodrome Forecast
Issued by NWS North Platte, NE

Home | Current Version | Previous Version | Text Only | Print | Product List | Glossary On
Versions: 1 2 3 4 5 6 7 8 9 10 11 12 13 14 15
000
FTUS43 KLBF 240530
TAFLBF
TAF
KLBF 240530Z 2406/2506 10006KT 5SM BR OVC003
     FM241100 05007KT 3SM -FZDZ BR OVC003
     FM241500 36009KT 3SM -SN OVC003
     FM241600 36010KT 1/2SM SN OVC008
     FM242100 33016G26KT 3SM -SN BLSN OVC008
     FM242300 34018G28KT 5SM -SN BLSN OVC010
     FM250000 34019G29KT 5SM -SN BLSN OVC015
     FM250300 33019G27KT 5SM -SN BLSN OVC020=

USA.gov is the U.S. government's official web portal to all federal, state and local government web resources and services.